Time;durP1;ratioP1;P1;durP2;ratioP2;P2;SDS_P1;SDS_P2;PMS_P1;PMS_P2;Temp;Humidity;BMP_temperature;BMP_pressure;BME280_temperature;BME280_humidity;BME280_pressure;Samples;Min_cycle;Max_cycle;Signal;HPM_P1;HPM_P2
2021/12/24 00:00:10;;;;;;;7.18;4.35;;;;;;;-8.12;79.11;101304.69;10502081;28;20496;-69
2021/12/24 00:05:11;;;;;;;11.57;5.95;;;;;;;-6.92;79.00;101518.47;10501474;28;20032;-69
2021/12/24 00:10:13;;;;;;;10.57;5.53;;;;;;;-7.51;79.34;101409.38;10483530;28;20507;-69
2021/12/24 00:15:51;;;;;;;9.02;4.80;;;;;;;-6.93;79.26;101501.28;10501755;28;20048;-69
2021/12/24 00:36:49;;;;;;;11.57;5.93;;;;;;;-6.79;78.51;101523.41;10500366;28;20036;-69
2021/12/24 00:41:49;;;;;;;22.45;8.65;;;;;;;-7.06;78.48;101509.28;10500277;28;20404;-69
2021/12/24 00:46:50;;;;;;;22.13;9.50;;;;;;;-8.47;78.39;101303.56;10499966;28;20044;-69
2021/12/24 00:52:06;;;;;;;27.70;11.88;;;;;;;-7.56;78.39;101498.94;10499130;28;20060;-70
2021/12/24 00:57:07;;;;;;;22.65;8.23;;;;;;;-7.92;78.66;101443.63;10499438;28;20048;-70
2021/12/24 01:02:08;;;;;;;22.73;10.13;;;;;;;-7.59;78.81;101524.81;10497750;28;20511;-70
2021/12/24 01:07:09;;;;;;;35.00;13.13;;;;;;;-7.72;79.17;101528.44;10499721;28;20519;-69
2021/12/24 01:12:10;;;;;;;34.95;14.23;;;;;;;-8.10;79.24;101473.97;10499099;28;20040;-69
2021/12/24 01:17:33;;;;;;;39.38;14.52;;;;;;;-8.02;79.40;101512.50;10498745;28;20047;-70
2021/12/24 01:38:50;;;;;;;16.50;7.38;;;;;;;-8.23;78.37;101542.00;10497528;28;20389;-69
2021/12/24 01:43:51;;;;;;;22.52;6.80;;;;;;;-8.61;78.83;101498.72;10497643;28;20040;-69
2021/12/24 01:48:52;;;;;;;11.90;6.45;;;;;;;-9.11;78.89;101443.50;10479905;28;20523;-70
2021/12/24 01:53:53;;;;;;;15.40;5.43;;;;;;;-8.96;79.11;101477.66;10497164;28;20502;-69
2021/12/24 01:58:54;;;;;;;20.67;5.38;;;;;;;-8.73;78.51;101543.50;10479020;28;20470;-69
2021/12/24 02:03:55;;;;;;;10.52;4.88;;;;;;;-8.81;79.17;101551.31;10496391;28;20101;-69
2021/12/24 02:08:56;;;;;;;11.38;4.68;;;;;;;-9.01;78.36;101532.63;10496290;28;20128;-69
2021/12/24 02:14:02;;;;;;;13.93;5.88;;;;;;;-10.34;78.94;101316.09;10496663;28;20068;-70
2021/12/24 02:29:32;;;;;;;9.75;4.57;;;;;;;-10.24;78.30;101420.44;10496366;28;20032;-69
2021/12/24 02:34:34;;;;;;;10.45;4.43;;;;;;;-9.73;78.75;101582.91;10496180;28;20048;-69
2021/12/24 02:39:34;;;;;;;9.20;4.72;;;;;;;-9.72;79.21;101586.34;10477545;28;20048;-69
2021/12/24 02:44:36;;;;;;;8.18;4.70;;;;;;;-10.65;78.97;101408.75;10496388;28;20410;-70
2021/12/24 02:54:47;;;;;;;8.52;4.30;;;;;;;-10.84;79.20;101376.31;10495797;28;20495;-69
2021/12/24 02:59:58;;;;;;;6.50;3.22;;;;;;;-9.76;78.36;101607.81;10494919;28;20060;-69
2021/12/24 03:05:00;;;;;;;11.60;4.05;;;;;;;-9.80;79.44;101600.97;10469882;28;20047;-68
2021/12/24 03:10:04;;;;;;;10.27;4.32;;;;;;;-10.70;79.23;101469.53;10484850;28;20037;-68
2021/12/24 03:15:07;;;;;;;12.43;4.88;;;;;;;-9.90;78.82;101595.00;10499112;28;20577;-69
2021/12/24 03:20:10;;;;;;;7.82;4.05;;;;;;;-10.65;78.98;101523.41;10460373;28;20040;-69
2021/12/24 03:25:11;;;;;;;9.05;4.22;;;;;;;-10.11;78.56;101614.84;10467484;28;20515;-69
2021/12/24 03:30:12;;;;;;;12.10;4.60;;;;;;;-11.46;78.99;101401.34;10484994;28;20120;-69
2021/12/24 03:35:13;;;;;;;11.82;4.60;;;;;;;-10.74;78.42;101532.00;10503316;28;20078;-68
2021/12/24 03:40:14;;;;;;;8.85;3.85;;;;;;;-10.31;78.82;101626.94;10478845;28;20099;-71
2021/12/24 03:45:27;;;;;;;11.65;3.88;;;;;;;-10.50;77.97;101591.84;10455279;28;20040;-68
2021/12/24 03:50:45;;;;;;;12.43;4.70;;;;;;;-10.54;78.57;101582.47;10477369;28;20052;-69
2021/12/24 03:55:46;;;;;;;15.85;4.97;;;;;;;-11.17;78.67;101451.72;10501958;28;20040;-68
2021/12/24 04:00:48;;;;;;;7.72;3.85;;;;;;;-11.91;77.98;101349.31;10501108;28;20040;-69
2021/12/24 04:05:49;;;;;;;11.93;4.35;;;;;;;-10.48;79.04;101614.13;10492613;28;20036;-70
2021/12/24 04:10:50;;;;;;;8.80;4.38;;;;;;;-11.56;78.91;101407.34;10510926;28;20496;-70
2021/12/24 04:15:51;;;;;;;10.20;3.92;;;;;;;-10.25;78.14;101646.56;10525991;28;20042;-72
2021/12/24 04:26:12;;;;;;;13.40;4.32;;;;;;;-10.39;78.40;101623.50;10536246;28;20036;-73
2021/12/24 04:31:13;;;;;;;12.43;4.78;;;;;;;-11.12;78.03;101520.13;10541418;28;20510;-69
2021/12/24 04:52:17;;;;;;;7.75;4.30;;;;;;;-10.30;78.06;101617.50;10486841;28;20048;-68
2021/12/24 05:08:09;;;;;;;12.43;5.38;;;;;;;-9.31;78.06;101675.28;10458382;28;20051;-71
2021/12/24 05:13:11;;;;;;;15.50;6.05;;;;;;;-10.20;77.46;101524.06;10457880;28;20025;-70
2021/12/24 05:23:16;;;;;;;9.13;4.95;;;;;;;-9.79;77.30;101652.38;10457594;28;20035;-70
2021/12/24 05:28:18;;;;;;;8.15;4.60;;;;;;;-9.86;77.67;101655.84;10457358;28;20076;-69
2021/12/24 05:33:18;;;;;;;9.77;4.97;;;;;;;-10.44;78.19;101543.91;10456618;28;20029;-70
2021/12/24 05:38:19;;;;;;;11.73;6.40;;;;;;;-9.19;78.70;101654.59;10456543;28;20484;-70
2021/12/24 05:43:20;;;;;;;10.15;5.97;;;;;;;-8.94;77.17;101652.72;10457030;28;20024;-73
2021/12/24 05:48:21;;;;;;;12.68;4.97;;;;;;;-8.71;77.50;101657.66;10456598;28;20032;-70
2021/12/24 05:53:24;;;;;;;10.65;4.22;;;;;;;-8.57;76.35;101665.28;10455582;28;20480;-70
2021/12/24 05:58:25;;;;;;;11.75;5.38;;;;;;;-9.12;77.17;101557.59;10456114;28;20106;-70
2021/12/24 06:03:26;;;;;;;10.68;4.72;;;;;;;-8.27;76.84;101690.72;10456274;28;20029;-70
2021/12/24 06:08:26;;;;;;;10.10;4.95;;;;;;;-8.14;77.17;101701.75;10438472;28;20106;-70
2021/12/24 06:13:29;;;;;;;8.75;4.95;;;;;;;-7.97;76.41;101677.50;10456614;28;20033;-70
2021/12/24 06:18:30;;;;;;;10.13;4.85;;;;;;;-7.97;76.91;101674.94;10455169;28;20041;-69
2021/12/24 06:23:32;;;;;;;10.95;4.72;;;;;;;-7.71;76.25;101693.53;10454909;28;20036;-70
2021/12/24 06:28:34;;;;;;;8.90;4.53;;;;;;;-7.86;75.78;101694.56;10456067;28;20496;-70
2021/12/24 06:33:35;;;;;;;15.70;5.10;;;;;;;-8.03;75.75;101657.81;10455066;28;20033;-70
2021/12/24 06:38:36;;;;;;;9.50;4.72;;;;;;;-8.28;76.10;101629.72;10436975;28;20476;-71
2021/12/24 06:43:37;;;;;;;19.67;6.35;;;;;;;-8.34;77.14;101591.13;10455132;28;20089;-71
2021/12/24 06:48:40;;;;;;;9.35;5.45;;;;;;;-7.42;75.44;101697.47;10454363;28;20040;-73
2021/12/24 06:53:41;;;;;;;16.10;6.18;;;;;;;-7.71;76.05;101679.78;10454935;28;20033;-71
2021/12/24 06:58:42;;;;;;;16.50;6.22;;;;;;;-7.84;75.76;101625.78;10453747;28;20041;-72
2021/12/24 07:03:43;;;;;;;9.40;4.50;;;;;;;-7.41;75.11;101647.56;10454888;28;20033;-70
2021/12/24 07:08:44;;;;;;;9.25;4.80;;;;;;;-7.35;74.70;101647.47;10454210;28;20091;-71
2021/12/24 07:13:45;;;;;;;9.13;4.10;;;;;;;-6.86;74.37;101687.19;10454143;28;20036;-70
2021/12/24 07:18:46;;;;;;;9.25;4.80;;;;;;;-7.02;73.67;101635.78;10454011;28;20044;-70
2021/12/24 07:23:47;;;;;;;14.20;6.40;;;;;;;-6.81;73.22;101672.47;10455186;28;20119;-71
2021/12/24 07:28:48;;;;;;;8.68;5.20;;;;;;;-6.83;73.59;101627.72;10436319;28;20033;-71
2021/12/24 07:33:49;;;;;;;13.35;6.25;;;;;;;-6.25;73.31;101665.44;10453858;28;20052;-70
2021/12/24 07:38:49;;;;;;;15.07;6.25;;;;;;;-6.02;72.49;101657.25;10453470;28;20029;-70
2021/12/24 07:43:51;;;;;;;14.57;6.03;;;;;;;-5.98;72.17;101644.25;10454011;28;20057;-71
2021/12/24 07:49:01;;;;;;;14.77;7.10;;;;;;;-5.87;72.59;101631.03;10452043;28;20045;-71
2021/12/24 07:54:04;;;;;;;11.68;6.45;;;;;;;-5.84;72.02;101599.06;10454027;28;20460;-71
2021/12/24 07:59:05;;;;;;;11.32;6.03;;;;;;;-5.48;71.63;101618.09;10454117;28;20045;-71
2021/12/24 08:04:06;;;;;;;13.88;6.10;;;;;;;-5.38;71.24;101596.31;10461249;28;20497;-71
2021/12/24 08:09:07;;;;;;;19.77;6.63;;;;;;;-5.32;70.07;101613.47;10460547;28;20033;-71
2021/12/24 08:14:08;;;;;;;9.77;5.07;;;;;;;-5.94;70.05;101505.31;10460841;28;20033;-69
2021/12/24 08:19:09;;;;;;;12.45;5.97;;;;;;;-5.24;70.81;101595.97;10459777;28;20060;-73
2021/12/24 08:24:10;;;;;;;13.55;6.72;;;;;;;-5.05;70.67;101589.47;10460906;28;20057;-72
2021/12/24 08:29:11;;;;;;;10.45;5.15;;;;;;;-4.70;70.78;101569.56;10459017;28;20033;-71
2021/12/24 08:34:11;;;;;;;11.23;5.70;;;;;;;-4.86;69.47;101524.22;10459004;28;20044;-72
2021/12/24 08:39:12;;;;;;;11.30;5.93;;;;;;;-5.15;69.40;101492.13;10459259;28;20090;-72
2021/12/24 08:44:13;;;;;;;18.88;5.75;;;;;;;-4.48;69.98;101563.81;10458190;28;20033;-70
2021/12/24 08:49:14;;;;;;;14.07;5.78;;;;;;;-4.34;68.84;101553.03;10459199;28;20392;-70
2021/12/24 08:54:16;;;;;;;10.82;5.60;;;;;;;-4.86;68.99;101452.47;10459325;28;20127;-70
2021/12/24 08:59:17;;;;;;;12.13;5.63;;;;;;;-5.16;68.43;101394.56;10458583;28;20049;-70
2021/12/24 09:04:18;;;;;;;12.70;6.65;;;;;;;-4.31;68.89;101520.06;10440905;28;20040;-70
2021/12/24 09:09:19;;;;;;;11.80;6.40;;;;;;;-5.24;68.16;101375.78;10457559;28;20044;-70
2021/12/24 09:14:19;;;;;;;11.23;5.85;;;;;;;-4.89;67.51;101421.47;10458342;28;20036;-70
2021/12/24 09:19:25;;;;;;;10.38;5.15;;;;;;;-4.67;67.37;101478.72;10457796;28;20068;-70
2021/12/24 09:24:27;;;;;;;8.82;4.20;;;;;;;-4.65;67.54;101456.22;10457609;28;20033;-71
2021/12/24 09:29:28;;;;;;;12.18;5.80;;;;;;;-4.70;68.04;101445.13;10439144;28;20029;-70
2021/12/24 09:34:29;;;;;;;10.35;5.20;;;;;;;-4.68;68.50;101425.19;10456969;28;20024;-70
2021/12/24 09:39:29;;;;;;;14.65;6.07;;;;;;;-5.16;68.38;101311.69;10457524;28;20059;-70
2021/12/24 09:44:30;;;;;;;9.45;3.95;;;;;;;-4.14;67.62;101436.56;10456276;28;20082;-70
2021/12/24 09:49:31;;;;;;;10.70;6.03;;;;;;;-4.45;67.80;101418.50;10438961;28;20431;-70
2021/12/24 09:54:32;;;;;;;14.60;5.88;;;;;;;-4.32;68.16;101442.31;10438616;28;20037;-70
2021/12/24 09:59:33;;;;;;;11.23;5.78;;;;;;;-4.22;68.46;101435.94;10456264;28;20051;-70
2021/12/24 10:04:36;;;;;;;10.27;4.85;;;;;;;-4.07;68.09;101422.47;10437617;28;20060;-70
2021/12/24 10:09:46;;;;;;;9.93;5.45;;;;;;;-5.02;68.18;101287.97;10456279;28;20099;-71
2021/12/24 10:14:48;;;;;;;10.65;5.40;;;;;;;-4.13;68.15;101427.88;10456645;28;20037;-70
2021/12/24 10:19:54;;;;;;;8.05;4.05;;;;;;;-4.20;68.37;101422.03;10437089;28;20041;-69
2021/12/24 10:25:08;;;;;;;7.00;2.88;;;;;;;-4.32;68.65;101406.84;10454852;28;20021;-70
2021/12/24 10:30:18;;;;;;;;;;;;;;;-4.11;68.62;101413.09;10455418;28;20187;-69
2021/12/24 10:35:27;;;;;;;11.65;6.22;;;;;;;-4.20;68.25;101411.66;10454875;28;19904;-70
2021/12/24 10:40:30;;;;;;;12.00;6.60;;;;;;;-5.15;69.31;101250.34;10455019;28;20071;-70
2021/12/24 10:45:32;;;;;;;17.05;6.63;;;;;;;-4.11;69.25;101400.13;10454802;28;20037;-70
2021/12/24 10:50:38;;;;;;;14.70;7.47;;;;;;;-4.51;69.15;101339.13;10454625;28;20053;-70
2021/12/24 10:55:54;;;;;;;13.05;6.40;;;;;;;-4.06;70.07;101406.03;10454486;28;20033;-70
2021/12/24 11:01:00;;;;;;;14.32;6.82;;;;;;;-4.69;69.94;101283.50;10454287;28;20417;-70
2021/12/24 11:06:13;;;;;;;9.98;5.97;;;;;;;-3.86;69.72;101420.94;10437156;28;20029;-70
2021/12/24 11:11:18;;;;;;;18.70;6.28;;;;;;;-4.00;69.83;101420.56;10454628;28;20051;-70
2021/12/24 11:16:22;;;;;;;15.05;6.85;;;;;;;-4.18;70.82;101419.41;10454098;28;20399;-70
2021/12/24 11:21:28;;;;;;;13.30;6.63;;;;;;;-5.14;70.74;101260.69;10435822;28;20039;-70
2021/12/24 11:26:39;;;;;;;12.90;6.72;;;;;;;-4.23;70.88;101410.91;10452355;28;20037;-71
2021/12/24 11:31:40;;;;;;;12.13;6.13;;;;;;;-4.87;70.92;101292.69;10453447;28;20074;-70
2021/12/24 11:36:42;;;;;;;12.93;7.05;;;;;;;-4.30;71.27;101389.50;10457638;28;20025;-69
2021/12/24 11:41:44;;;;;;;12.43;5.32;;;;;;;-4.20;70.91;101427.22;10460292;28;20488;-69
2021/12/24 11:46:45;;;;;;;13.38;6.13;;;;;;;-4.96;71.59;101321.47;10461480;28;20036;-70
2021/12/24 11:51:46;;;;;;;12.75;7.05;;;;;;;-4.65;71.99;101370.66;10461535;28;20052;-70
2021/12/24 11:56:54;;;;;;;10.60;5.47;;;;;;;-5.18;71.91;101290.13;10443490;28;20033;-70
2021/12/24 12:01:54;;;;;;;10.05;5.65;;;;;;;-5.34;71.99;101279.38;10460683;28;20033;-69
2021/12/24 12:07:17;;;;;;;9.90;5.05;;;;;;;-4.65;72.82;101403.50;10459998;28;20453;-69
2021/12/24 12:12:32;;;;;;;12.50;6.63;;;;;;;-5.62;72.87;101250.84;10460201;28;20028;-69
2021/12/24 12:17:33;;;;;;;12.13;5.78;;;;;;;-4.90;72.89;101382.66;10441810;28;20033;-69
2021/12/24 12:27:56;;;;;;;12.40;6.45;;;;;;;-6.01;73.03;101206.25;10472827;28;20029;-70
2021/12/24 12:33:07;;;;;;;10.10;4.93;;;;;;;-5.11;74.03;101374.59;10460078;28;20492;-69
2021/12/24 12:38:34;;;;;;;18.35;6.35;;;;;;;-5.63;74.16;101303.50;10462863;28;20044;-69
2021/12/24 12:43:37;;;;;;;15.35;6.95;;;;;;;-5.36;74.38;101369.22;10475666;28;20040;-69
2021/12/24 12:48:43;;;;;;;12.93;6.60;;;;;;;-6.76;74.25;101152.16;10482290;28;20028;-69
2021/12/24 12:53:44;;;;;;;13.10;6.88;;;;;;;-5.54;74.85;101367.13;10471843;28;20033;-68
2021/12/24 12:59:04;;;;;;;14.55;6.15;;;;;;;-6.38;74.89;101239.97;10482909;28;20496;-68
2021/12/24 13:04:06;;;;;;;11.15;6.18;;;;;;;-5.71;75.04;101357.22;10470849;28;20420;-68
2021/12/24 13:09:12;;;;;;;16.95;8.20;;;;;;;-5.84;75.51;101361.84;10493074;28;20045;-68
2021/12/24 13:14:15;;;;;;;14.20;7.15;;;;;;;-5.95;75.60;101360.44;10498477;28;20323;-68
2021/12/24 13:24:18;;;;;;;14.43;7.03;;;;;;;-6.56;75.73;101285.19;10493538;28;20044;-68
2021/12/24 13:29:23;;;;;;;14.27;7.43;;;;;;;-6.22;76.35;101374.03;10497268;28;20044;-68
2021/12/24 13:34:25;;;;;;;13.70;7.22;;;;;;;-6.82;76.20;101293.53;10501363;28;20045;-69
2021/12/24 13:39:26;;;;;;;13.65;7.55;;;;;;;-6.46;76.93;101369.38;10499867;28;20055;-68
2021/12/24 13:44:29;;;;;;;16.05;7.53;;;;;;;-6.52;77.28;101365.22;10493360;28;20048;-70
2021/12/24 13:54:38;;;;;;;15.52;7.22;;;;;;;-7.81;77.29;101174.34;10453988;28;20048;-68
2021/12/24 13:59:39;;;;;;;10.68;5.78;;;;;;;-7.62;76.96;101208.34;10453011;28;20087;-69
2021/12/24 14:04:40;;;;;;;12.27;5.70;;;;;;;-6.69;77.07;101351.81;10450156;28;20041;-69
2021/12/24 14:09:41;;;;;;;13.55;5.68;;;;;;;-6.80;77.48;101325.38;10453830;28;20040;-69
2021/12/24 14:14:50;;;;;;;13.35;5.43;;;;;;;-6.85;77.24;101322.03;10436441;28;20056;-68
2021/12/24 14:25:08;;;;;;;11.23;5.93;;;;;;;-7.03;77.36;101320.69;10430569;28;20144;-68
2021/12/24 14:30:12;;;;;;;8.43;4.93;;;;;;;-7.12;77.48;101289.03;10434845;28;20051;-69
2021/12/24 14:35:19;;;;;;;12.77;5.97;;;;;;;-7.85;77.68;101170.09;10436807;28;20076;-70
2021/12/24 14:40:21;;;;;;;6.88;3.58;;;;;;;-7.03;77.71;101311.22;10449631;28;20052;-69
2021/12/24 14:45:23;;;;;;;10.80;6.05;;;;;;;-7.05;77.65;101325.06;10434525;28;20072;-70
2021/12/24 14:50:25;;;;;;;10.45;5.32;;;;;;;-7.09;78.19;101318.22;10462657;28;20110;-69
2021/12/24 14:55:26;;;;;;;13.85;6.18;;;;;;;-8.05;78.21;101169.63;10482513;28;20045;-70
2021/12/24 15:00:32;;;;;;;9.27;5.60;;;;;;;-8.20;77.98;101163.03;10478972;28;20052;-69
2021/12/24 15:05:38;;;;;;;10.23;5.55;;;;;;;-7.36;78.66;101315.31;10480506;28;20037;-69
2021/12/24 15:10:40;;;;;;;11.20;5.72;;;;;;;-7.46;78.49;101319.81;10469939;28;20044;-70
2021/12/24 15:15:49;;;;;;;10.02;5.78;;;;;;;-7.67;78.90;101282.38;10490888;28;20144;-70
2021/12/24 15:20:51;;;;;;;12.20;5.93;;;;;;;-7.85;78.97;101262.09;10503281;28;20064;-69
2021/12/24 15:25:52;;;;;;;10.30;5.93;;;;;;;-8.63;78.83;101140.69;10502915;28;20045;-69
2021/12/24 15:30:55;;;;;;;11.13;6.10;;;;;;;-7.89;79.03;101300.00;10503212;28;20045;-69
2021/12/24 15:35:55;;;;;;;9.02;5.38;;;;;;;-7.88;78.77;101306.00;10502580;28;20572;-72
2021/12/24 15:40:56;;;;;;;10.30;5.57;;;;;;;-8.03;78.63;101294.22;10503270;28;20135;-69
2021/12/24 15:45:57;;;;;;;11.77;5.50;;;;;;;-8.05;79.11;101288.25;10502506;28;20044;-69
2021/12/24 15:51:01;;;;;;;15.68;5.88;;;;;;;-8.15;78.90;101281.56;10501937;28;20532;-69
2021/12/24 15:56:04;;;;;;;11.17;5.63;;;;;;;-9.21;78.92;101113.34;10502232;28;20064;-69
2021/12/24 16:01:07;;;;;;;12.73;5.93;;;;;;;-9.14;79.31;101116.66;10502274;28;20295;-69
2021/12/24 16:06:08;;;;;;;10.98;5.78;;;;;;;-8.18;79.17;101279.03;10501138;28;20051;-69
2021/12/24 16:11:09;;;;;;;9.77;5.15;;;;;;;-8.20;79.36;101253.25;10483208;28;20060;-69
2021/12/24 16:16:10;;;;;;;10.52;5.25;;;;;;;-8.58;78.93;101197.28;10501353;28;20068;-69
2021/12/24 16:21:10;;;;;;;10.52;5.32;;;;;;;-8.80;78.77;101200.19;10499972;28;20067;-71
2021/12/24 16:26:11;;;;;;;11.70;5.60;;;;;;;-8.93;79.29;101179.81;10482835;28;20681;-69
2021/12/24 16:31:12;;;;;;;10.93;5.40;;;;;;;-9.01;78.92;101182.50;10501439;28;20048;-69
2021/12/24 16:36:13;;;;;;;9.27;5.55;;;;;;;-8.47;79.17;101262.34;10490456;28;20055;-69
2021/12/24 16:41:14;;;;;;;13.63;5.03;;;;;;;-8.55;78.79;101241.03;10471218;28;20048;-70
2021/12/24 16:46:15;;;;;;;10.75;5.38;;;;;;;-8.68;78.49;101213.75;10497803;28;20047;-70
2021/12/24 16:51:16;;;;;;;9.98;4.90;;;;;;;-8.55;78.01;101252.19;10499521;28;20060;-71
2021/12/24 16:56:17;;;;;;;8.77;5.05;;;;;;;-8.83;78.80;101195.09;10499478;28;20040;-70
2021/12/24 17:01:18;;;;;;;10.35;4.97;;;;;;;-8.45;78.38;101209.06;10499831;28;20499;-71
2021/12/24 17:06:19;;;;;;;8.23;4.20;;;;;;;-9.09;77.51;101082.25;10482050;28;20036;-69
2021/12/24 17:11:25;;;;;;;9.18;5.13;;;;;;;-8.12;77.74;101230.78;10488722;28;20055;-70
2021/12/24 17:16:26;;;;;;;8.80;4.80;;;;;;;-8.28;77.84;101190.72;10457169;28;20381;-70
2021/12/24 17:21:26;;;;;;;7.05;3.90;;;;;;;-8.05;77.60;101216.03;10456818;28;20168;-70
2021/12/24 17:26:27;;;;;;;7.20;4.13;;;;;;;-7.99;77.72;101207.34;10439274;28;20124;-70
2021/12/24 17:31:28;;;;;;;7.53;3.67;;;;;;;-8.76;78.08;101083.41;10457744;28;20071;-69
2021/12/24 17:36:29;;;;;;;13.60;4.78;;;;;;;-8.10;78.35;101202.41;10456902;28;20522;-70
2021/12/24 17:41:30;;;;;;;10.25;4.47;;;;;;;-9.03;78.52;101046.13;10456627;28;20041;-70
2021/12/24 17:46:31;;;;;;;9.23;5.22;;;;;;;-8.21;78.68;101199.19;10456088;28;20501;-70
2021/12/24 17:51:32;;;;;;;13.65;4.63;;;;;;;-8.32;78.72;101207.94;10454745;28;20411;-70
2021/12/24 17:56:33;;;;;;;11.18;6.00;;;;;;;-9.35;79.07;101036.38;10455611;28;20041;-69
2021/12/24 18:01:34;;;;;;;10.25;4.60;;;;;;;-8.67;79.51;101162.22;10455207;28;20041;-70
2021/12/24 18:06:35;;;;;;;9.10;4.65;;;;;;;-8.88;79.60;101166.00;10437484;28;20075;-70
2021/12/24 18:11:37;;;;;;;10.85;5.20;;;;;;;-9.03;79.53;101146.50;10456291;28;20060;-69
2021/12/24 18:16:39;;;;;;;11.20;5.32;;;;;;;-9.76;79.21;101019.84;10454776;28;20047;-69
2021/12/24 18:21:40;;;;;;;8.93;4.93;;;;;;;-9.14;79.43;101142.41;10455880;28;20041;-69
2021/12/24 18:26:41;;;;;;;8.73;4.55;;;;;;;-9.70;79.24;101063.47;10454788;28;20518;-71
2021/12/24 18:31:42;;;;;;;9.85;4.95;;;;;;;-9.14;79.70;101170.72;10454406;28;20041;-71
2021/12/24 18:36:43;;;;;;;10.00;5.13;;;;;;;-9.40;80.10;101151.34;10454321;28;20080;-70
2021/12/24 18:41:44;;;;;;;9.45;4.78;;;;;;;-9.32;79.53;101154.66;10454696;28;20120;-69
2021/12/24 18:46:45;;;;;;;9.15;4.25;;;;;;;-9.24;79.54;101176.00;10453657;28;20120;-69
2021/12/24 18:51:46;;;;;;;9.13;4.38;;;;;;;-9.85;79.48;101061.13;10453844;28;20592;-69
2021/12/24 18:56:48;;;;;;;8.82;5.30;;;;;;;-9.25;79.70;101153.69;10454182;28;20124;-70
2021/12/24 19:01:48;;;;;;;9.25;4.78;;;;;;;-9.23;79.67;101154.53;10453642;28;20037;-69
2021/12/24 19:06:49;;;;;;;10.80;4.97;;;;;;;-9.28;79.44;101148.59;10453667;28;20045;-69
2021/12/24 19:11:50;;;;;;;13.55;5.35;;;;;;;-10.38;79.37;100958.25;10454466;28;20120;-69
2021/12/24 19:16:51;;;;;;;8.52;4.57;;;;;;;-9.34;79.56;101134.97;10454239;28;20083;-69
2021/12/24 19:21:52;;;;;;;8.10;5.03;;;;;;;-9.57;80.06;101107.88;10470029;28;20048;-69
2021/12/24 19:26:53;;;;;;;8.15;4.78;;;;;;;-9.76;79.72;101066.13;10483575;28;20052;-69
2021/12/24 19:31:56;;;;;;;11.00;5.40;;;;;;;-9.51;79.95;101120.66;10491977;28;20036;-70
2021/12/24 19:36:57;;;;;;;11.30;5.35;;;;;;;-10.38;80.00;100967.66;10494914;28;20097;-72
2021/12/24 19:41:59;;;;;;;12.23;5.32;;;;;;;-10.13;80.26;100979.28;10471273;28;20443;-69
2021/12/24 19:46:59;;;;;;;8.85;5.13;;;;;;;-9.14;80.15;101143.25;10453937;28;20049;-69
2021/12/24 19:52:00;;;;;;;9.98;5.05;;;;;;;-9.26;80.48;101097.97;10427198;28;20595;-69
2021/12/24 19:57:02;;;;;;;10.80;5.68;;;;;;;-9.15;80.31;101099.50;10415051;28;20045;-69
2021/12/24 20:02:03;;;;;;;10.73;5.43;;;;;;;-9.16;79.56;101106.38;10420350;28;20484;-69
2021/12/24 20:07:04;;;;;;;9.80;5.10;;;;;;;-9.22;79.81;101114.19;10419213;28;20045;-69
2021/12/24 20:12:08;;;;;;;10.50;5.95;;;;;;;-9.20;79.77;101107.31;10419562;28;20489;-69
2021/12/24 20:17:08;;;;;;;13.55;5.07;;;;;;;-9.28;79.70;101098.84;10418717;28;20036;-69
2021/12/24 20:22:09;;;;;;;12.50;5.50;;;;;;;-9.72;79.54;101031.81;10419137;28;20046;-69
2021/12/24 20:27:10;;;;;;;10.60;5.22;;;;;;;-9.46;79.24;101081.97;10418462;28;20042;-69
2021/12/24 20:32:11;;;;;;;9.50;4.75;;;;;;;-10.01;79.81;100987.69;10418629;28;20044;-69
2021/12/24 20:37:12;;;;;;;18.50;7.60;;;;;;;-9.41;79.49;101087.91;10418375;28;20051;-69
2021/12/24 20:42:13;;;;;;;12.30;6.95;;;;;;;-10.20;79.35;100961.38;10417885;28;20124;-72
2021/12/24 20:47:14;;;;;;;12.38;5.38;;;;;;;-9.74;79.07;101056.69;10418710;28;20064;-69
2021/12/24 20:52:15;;;;;;;9.68;5.40;;;;;;;-11.29;79.32;100822.53;10417712;28;20061;-70
2021/12/24 20:57:16;;;;;;;13.57;5.68;;;;;;;-10.06;79.89;101039.13;10417135;28;20707;-68
2021/12/24 21:02:17;;;;;;;10.15;4.68;;;;;;;-9.96;79.75;101037.28;10416573;28;20073;-69
2021/12/24 21:07:18;;;;;;;9.75;5.57;;;;;;;-10.18;79.89;101024.72;10417108;28;20045;-69
2021/12/24 21:12:19;;;;;;;12.45;6.40;;;;;;;-10.22;79.86;101009.38;10417860;28;20044;-69
2021/12/24 21:17:20;;;;;;;13.93;6.63;;;;;;;-9.90;79.93;101037.19;10416066;28;20044;-69
2021/12/24 21:22:21;;;;;;;13.25;5.63;;;;;;;-9.89;79.68;101029.47;10416773;28;20049;-69
2021/12/24 21:27:23;;;;;;;8.20;5.07;;;;;;;-10.01;79.35;101018.53;10416004;28;20045;-69
2021/12/24 21:32:26;;;;;;;11.88;6.05;;;;;;;-10.72;79.41;100887.66;10415391;28;20120;-68
2021/12/24 21:37:26;;;;;;;13.20;5.03;;;;;;;-9.95;79.21;100995.31;10414985;28;20409;-69
2021/12/24 21:42:27;;;;;;;9.77;5.03;;;;;;;-10.14;78.64;100992.13;10415331;28;20049;-69
2021/12/24 21:47:28;;;;;;;13.55;4.93;;;;;;;-10.72;78.92;100921.03;10415315;28;20045;-70
2021/12/24 21:52:29;;;;;;;13.15;4.78;;;;;;;-11.85;79.64;100730.94;10414611;28;20191;-68
2021/12/24 21:57:30;;;;;;;14.90;5.07;;;;;;;-10.88;79.42;100900.72;10414940;28;20559;-69
2021/12/24 22:02:32;;;;;;;9.48;5.15;;;;;;;-10.53;79.26;100994.38;10415446;28;20517;-69
2021/12/24 22:12:53;;;;;;;6.53;4.18;;;;;;;-10.91;78.84;101000.81;10415102;28;20396;-69
2021/12/24 22:17:57;;;;;;;10.43;4.68;;;;;;;-10.92;79.65;101018.78;10414142;28;20140;-69
2021/12/24 22:22:58;;;;;;;9.32;4.13;;;;;;;-11.56;79.21;100894.63;10415350;28;20065;-71
2021/12/24 22:27:59;;;;;;;7.68;4.53;;;;;;;-10.29;79.49;101049.72;10415040;28;20481;-69
2021/12/24 22:33:01;;;;;;;10.07;5.40;;;;;;;-9.99;79.69;101042.47;10414501;28;20049;-69
2021/12/24 22:38:02;;;;;;;23.30;11.68;;;;;;;-9.75;80.17;101031.84;10389996;28;20111;-69
2021/12/24 22:43:04;;;;;;;31.60;16.10;;;;;;;-9.52;79.36;101038.34;10414361;28;20049;-69
2021/12/24 22:48:11;;;;;;;22.23;11.00;;;;;;;-9.30;78.88;101036.25;10413848;28;20045;-69
2021/12/24 22:53:13;;;;;;;14.50;7.20;;;;;;;-10.16;78.22;100861.13;10413508;28;20093;-68
2021/12/24 22:58:15;;;;;;;15.02;6.57;;;;;;;-9.20;78.55;101007.78;10412849;28;20057;-69
2021/12/24 23:03:21;;;;;;;11.50;5.90;;;;;;;-8.89;78.55;101009.81;10413150;28;20041;-69
2021/12/24 23:08:26;;;;;;;12.10;5.38;;;;;;;-8.99;78.42;100975.66;10413640;28;20046;-68
2021/12/24 23:13:30;;;;;;;11.50;5.60;;;;;;;-8.68;78.96;100997.41;10412777;28;20378;-68
2021/12/24 23:18:31;;;;;;;11.18;5.28;;;;;;;-8.59;78.37;100990.34;10412449;28;20076;-69
2021/12/24 23:23:33;;;;;;;10.18;4.82;;;;;;;-8.84;78.64;100940.22;10413826;28;20072;-69
2021/12/24 23:28:37;;;;;;;10.88;6.10;;;;;;;-9.34;78.03;100849.41;10412428;28;20560;-70
2021/12/24 23:33:38;;;;;;;11.52;5.65;;;;;;;-8.64;79.21;100965.56;10419802;28;20405;-69
2021/12/24 23:38:39;;;;;;;10.88;6.03;;;;;;;-8.47;79.00;100949.75;10420902;28;20046;-68
2021/12/24 23:43:48;;;;;;;13.07;5.68;;;;;;;-8.34;78.90;100936.53;10420070;28;20111;-69
2021/12/24 23:48:49;;;;;;;12.60;5.78;;;;;;;-8.85;78.77;100853.56;10423175;28;20049;-69
2021/12/24 23:53:50;;;;;;;13.77;6.38;;;;;;;-9.66;79.18;100730.88;10461044;28;20041;-70
2021/12/24 23:58:51;;;;;;;10.05;5.60;;;;;;;-8.79;79.10;100846.53;10461909;28;20408;-69
